createdAt,value
2023-05-12T00:00:13.131Z,5.13
2023-05-12T00:02:40.210Z,6.37
2023-05-12T00:05:07.411Z,7.80
2023-05-12T00:07:34.631Z,7.13
2023-05-12T00:10:01.786Z,6.80
2023-05-12T00:12:28.588Z,4.37
2023-05-12T00:14:55.662Z,7.10
2023-05-12T00:17:22.685Z,6.90
2023-05-12T00:19:50.179Z,4.93
2023-05-12T00:22:17.266Z,4.37
2023-05-12T00:24:44.265Z,7.27
2023-05-12T00:27:13.623Z,5.97
2023-05-12T00:29:40.567Z,6.37
2023-05-12T00:32:08.313Z,7.20
2023-05-12T00:34:35.279Z,4.90
2023-05-12T00:37:02.319Z,5.40
2023-05-12T00:39:29.193Z,4.27
2023-05-12T00:41:58.044Z,7.63
2023-05-12T00:44:25.211Z,10.57
2023-05-12T00:46:53.254Z,4.83
2023-05-12T00:49:21.151Z,8.67
2023-05-12T00:51:47.979Z,7.90
2023-05-12T00:54:15.200Z,6.77
2023-05-12T00:56:42.514Z,7.43
2023-05-12T00:59:09.286Z,5.80
2023-05-12T01:01:36.765Z,5.87
2023-05-12T01:04:04.347Z,5.43
2023-05-12T01:07:05.594Z,7.23
2023-05-12T01:09:32.487Z,11.20
2023-05-12T01:11:59.237Z,7.00
2023-05-12T01:14:26.060Z,5.70
2023-05-12T01:16:54.997Z,5.73
2023-05-12T01:19:42.722Z,7.00
2023-05-12T01:22:12.306Z,6.47
2023-05-12T01:24:55.153Z,6.30
2023-05-12T01:27:25.902Z,8.83
2023-05-12T01:29:54.789Z,5.27
2023-05-12T01:32:22.324Z,7.87
2023-05-12T01:34:50.405Z,5.67
2023-05-12T01:37:17.210Z,4.97
2023-05-12T01:39:44.326Z,4.83
2023-05-12T01:42:11.293Z,5.33
2023-05-12T01:44:38.438Z,6.73
2023-05-12T01:47:05.328Z,5.13
2023-05-12T01:49:32.139Z,7.57
2023-05-12T01:51:58.972Z,7.10
2023-05-12T01:54:25.752Z,8.37
2023-05-12T01:56:52.571Z,4.47
2023-05-12T01:59:19.460Z,6.30
2023-05-12T02:01:46.283Z,5.60
2023-05-12T02:04:13.310Z,6.77
2023-05-12T02:06:40.418Z,7.93
2023-05-12T02:09:07.109Z,7.97
2023-05-12T02:11:33.957Z,9.13
2023-05-12T02:14:00.912Z,6.03
2023-05-12T02:16:27.717Z,6.47
2023-05-12T02:18:54.730Z,4.73
2023-05-12T02:21:21.857Z,7.97
2023-05-12T02:23:48.660Z,4.20
2023-05-12T02:26:15.403Z,7.20
2023-05-12T02:28:42.277Z,6.20
2023-05-12T02:31:09.078Z,4.97
2023-05-12T02:33:36.723Z,7.63
2023-05-12T02:36:03.831Z,5.77
2023-05-12T02:38:30.860Z,5.20
2023-05-12T02:40:57.676Z,6.07
2023-05-12T02:43:24.553Z,5.17
2023-05-12T02:45:51.912Z,9.23
2023-05-12T02:48:18.804Z,5.87
2023-05-12T02:50:45.755Z,5.40
2023-05-12T02:53:12.880Z,4.90
2023-05-12T02:55:39.672Z,5.70
2023-05-12T02:58:07.408Z,3.93
2023-05-12T03:00:34.299Z,4.43
2023-05-12T03:03:01.277Z,7.00
2023-05-12T03:05:28.384Z,8.00
2023-05-12T03:07:55.937Z,6.70
2023-05-12T03:10:23.197Z,7.97
2023-05-12T03:12:50.132Z,5.77
2023-05-12T03:15:17.248Z,6.87
2023-05-12T03:17:44.185Z,6.57
2023-05-12T03:20:12.217Z,7.93
2023-05-12T03:22:39.153Z,6.67
2023-05-12T03:25:07.611Z,6.43
2023-05-12T03:27:34.602Z,6.50
2023-05-12T03:30:01.732Z,8.20
2023-05-12T03:32:28.785Z,5.60
2023-05-12T03:34:55.653Z,7.90
2023-05-12T03:37:22.689Z,5.43
2023-05-12T03:39:49.735Z,8.50
2023-05-12T03:42:16.528Z,7.77
2023-05-12T03:44:43.889Z,8.07
2023-05-12T03:47:10.929Z,4.47
2023-05-12T03:49:37.939Z,11.73
2023-05-12T03:52:05.039Z,10.30
2023-05-12T03:54:32.016Z,6.77
2023-05-12T03:56:58.840Z,8.90
2023-05-12T03:59:25.970Z,5.57
2023-05-12T04:01:53.625Z,6.87
2023-05-12T04:04:20.832Z,7.50
2023-05-12T04:06:48.162Z,7.87
2023-05-12T04:09:18.592Z,7.77
2023-05-12T04:11:45.589Z,6.80
2023-05-12T04:14:12.437Z,5.40
2023-05-12T04:16:40.750Z,8.10
2023-05-12T04:19:07.588Z,6.63
2023-05-12T04:21:34.525Z,6.00
2023-05-12T04:24:01.466Z,6.07
2023-05-12T04:26:28.195Z,4.23
2023-05-12T04:28:55.057Z,8.57
2023-05-12T04:31:21.910Z,7.27
2023-05-12T04:33:48.755Z,7.27
2023-05-12T04:36:15.765Z,5.27
2023-05-12T04:38:42.846Z,6.97
2023-05-12T04:41:09.627Z,5.67
2023-05-12T04:46:06.081Z,5.83
2023-05-12T04:48:32.899Z,6.53
2023-05-12T04:51:00.415Z,7.73
2023-05-12T04:53:34.516Z,10.87
2023-05-12T04:56:01.688Z,7.40
2023-05-12T04:58:28.598Z,7.20
2023-05-12T05:00:55.626Z,5.47
2023-05-12T05:03:22.740Z,10.20
2023-05-12T05:05:49.585Z,4.93
2023-05-12T05:08:16.545Z,10.43
2023-05-12T05:10:43.279Z,7.63
2023-05-12T05:13:09.986Z,6.00
2023-05-12T05:15:37.096Z,8.90
2023-05-12T05:18:06.418Z,6.03
2023-05-12T05:20:34.516Z,6.17
2023-05-12T05:23:01.836Z,7.10
2023-05-12T05:25:28.971Z,7.27
2023-05-12T05:27:56.041Z,7.83
2023-05-12T05:30:22.839Z,6.77
2023-05-12T05:32:49.711Z,7.87
2023-05-12T05:35:16.800Z,5.80
2023-05-12T05:37:43.716Z,9.50
2023-05-12T05:40:10.703Z,5.60
2023-05-12T05:42:37.735Z,4.83
2023-05-12T05:45:05.319Z,7.77
2023-05-12T05:47:32.523Z,10.30
2023-05-12T05:49:59.755Z,8.07
2023-05-12T05:52:26.575Z,5.67
2023-05-12T05:54:53.472Z,5.47
2023-05-12T05:57:21.298Z,9.67
2023-05-12T05:59:48.050Z,4.70
2023-05-12T06:02:16.604Z,12.37
2023-05-12T06:04:43.571Z,7.13
2023-05-12T06:07:10.435Z,6.03
2023-05-12T06:09:37.313Z,10.30
2023-05-12T06:12:04.281Z,7.93
2023-05-12T06:14:31.259Z,7.50
2023-05-12T06:16:58.690Z,7.03
2023-05-12T06:19:25.766Z,4.97
2023-05-12T06:21:52.813Z,6.83
2023-05-12T06:24:19.672Z,6.33
2023-05-12T06:26:46.622Z,6.00
2023-05-12T06:29:13.848Z,5.27
2023-05-12T06:31:40.984Z,4.97
2023-05-12T06:34:07.980Z,4.73
2023-05-12T06:36:35.044Z,7.10
2023-05-12T06:39:02.072Z,5.93
2023-05-12T06:41:28.849Z,11.97
2023-05-12T06:43:55.807Z,4.53
2023-05-12T06:46:23.096Z,7.70
2023-05-12T06:48:50.157Z,4.47
2023-05-12T06:51:17.100Z,4.07
2023-05-12T06:53:45.057Z,5.57
2023-05-12T06:56:16.886Z,5.25
2023-05-12T06:58:44.155Z,6.45
2023-05-12T07:01:10.975Z,3.87
2023-05-12T07:03:37.932Z,3.88
2023-05-12T07:06:05.166Z,4.55
2023-05-12T07:08:32.228Z,4.88
2023-05-12T07:11:02.286Z,5.17
2023-05-12T07:13:29.210Z,4.43
2023-05-12T07:15:56.069Z,10.23
2023-05-12T07:18:22.825Z,4.53
2023-05-12T07:20:49.719Z,5.63
2023-05-12T07:23:16.960Z,3.03
2023-05-12T07:25:44.195Z,3.83
2023-05-12T07:28:11.497Z,2.92
2023-05-12T07:30:38.840Z,4.05
2023-05-12T07:33:06.515Z,3.90
2023-05-12T07:35:33.881Z,4.35
2023-05-12T07:38:00.737Z,5.03
2023-05-12T07:40:27.688Z,7.30
2023-05-12T07:42:54.888Z,6.85
2023-05-12T07:45:25.391Z,4.45
2023-05-12T07:47:52.564Z,3.90
2023-05-12T07:50:19.495Z,4.90
2023-05-12T07:52:48.243Z,4.20
2023-05-12T07:55:15.925Z,4.60
2023-05-12T07:57:43.546Z,4.10
2023-05-12T08:00:11.429Z,6.85
2023-05-12T08:02:38.858Z,7.82
2023-05-12T08:05:06.622Z,5.93
2023-05-12T08:07:33.507Z,6.10
2023-05-12T08:10:00.593Z,4.40
2023-05-12T08:12:27.616Z,3.85
2023-05-12T08:14:54.471Z,5.95
2023-05-12T08:17:21.403Z,5.97
2023-05-12T08:19:48.216Z,4.35
2023-05-12T08:22:15.010Z,6.47
2023-05-12T08:24:43.471Z,5.78
2023-05-12T08:27:10.416Z,8.93
2023-05-12T08:29:37.710Z,7.80
2023-05-12T08:32:05.130Z,9.40
2023-05-12T08:34:32.478Z,5.50
2023-05-12T08:36:59.702Z,4.93
2023-05-12T08:39:30.882Z,5.43
2023-05-12T08:42:06.963Z,6.72
2023-05-12T08:44:33.938Z,4.25
2023-05-12T08:47:01.850Z,5.70
2023-05-12T08:49:31.394Z,6.80
2023-05-12T08:52:01.410Z,5.65
2023-05-12T08:54:29.211Z,5.28
2023-05-12T08:59:27.168Z,4.40
2023-05-12T09:01:55.317Z,4.75
2023-05-12T09:04:22.385Z,7.55
2023-05-12T09:06:49.774Z,2.63
2023-05-12T09:09:17.685Z,3.17
2023-05-12T09:11:45.126Z,7.65
2023-05-12T09:14:34.778Z,5.53
2023-05-12T09:17:04.880Z,5.18
2023-05-12T09:19:32.597Z,4.30
2023-05-12T09:22:00.956Z,9.98
2023-05-12T09:24:38.689Z,6.95
2023-05-12T09:27:07.128Z,6.63
2023-05-12T09:29:37.442Z,5.63
2023-05-12T09:34:38.595Z,4.63
2023-05-12T09:37:07.144Z,2.67
2023-05-12T09:39:34.295Z,4.95
2023-05-12T09:42:01.315Z,5.30
2023-05-12T09:44:29.397Z,5.07
2023-05-12T09:46:56.511Z,6.40
2023-05-12T09:49:28.059Z,5.57
2023-05-12T09:51:59.121Z,3.92
2023-05-12T09:54:26.692Z,4.05
2023-05-12T09:57:00.159Z,2.80
2023-05-12T09:59:32.850Z,5.90
2023-05-12T10:02:01.593Z,4.95
2023-05-12T10:04:39.475Z,5.95
2023-05-12T10:07:10.252Z,5.03
2023-05-12T10:09:39.409Z,29.80
2023-05-12T10:12:06.553Z,6.28
2023-05-12T10:14:34.377Z,5.32
2023-05-12T10:17:02.057Z,2.33
2023-05-12T10:19:32.702Z,5.03
2023-05-12T10:22:01.092Z,5.40
2023-05-12T10:24:28.763Z,3.63
2023-05-12T10:26:56.709Z,6.38
2023-05-12T10:29:30.160Z,4.47
2023-05-12T10:31:57.992Z,4.07
2023-05-12T10:34:30.943Z,5.60
2023-05-12T10:36:58.649Z,5.28
2023-05-12T10:39:29.948Z,6.85
2023-05-12T10:42:09.630Z,6.57
2023-05-12T10:44:50.961Z,4.97
2023-05-12T10:47:17.792Z,4.28
2023-05-12T10:49:45.068Z,4.28
2023-05-12T10:52:13.529Z,3.80
2023-05-12T10:54:45.660Z,6.50
2023-05-12T10:57:17.093Z,7.70
2023-05-12T10:59:50.757Z,5.55
2023-05-12T11:02:23.429Z,10.73
2023-05-12T11:04:58.052Z,3.45
2023-05-12T11:07:35.623Z,5.82
2023-05-12T11:10:05.902Z,6.55
2023-05-12T11:12:37.925Z,4.38
2023-05-12T11:15:09.301Z,4.53
2023-05-12T11:17:40.714Z,8.57
2023-05-12T11:20:09.933Z,4.65
2023-05-12T11:22:37.298Z,4.18
2023-05-12T11:25:11.749Z,4.90
2023-05-12T11:27:42.439Z,4.35
2023-05-12T11:30:11.105Z,5.57
2023-05-12T11:32:38.254Z,4.88
2023-05-12T11:35:15.406Z,2.38
2023-05-12T11:37:44.279Z,6.57
2023-05-12T11:40:19.871Z,3.67
2023-05-12T11:42:55.909Z,6.25
2023-05-12T11:45:30.487Z,4.13
2023-05-12T11:48:12.211Z,5.95
2023-05-12T11:50:40.931Z,6.72
2023-05-12T11:53:14.752Z,2.65
2023-05-12T11:55:59.169Z,3.10
2023-05-12T11:58:30.288Z,8.27
2023-05-12T12:01:08.282Z,3.85
2023-05-12T12:03:47.518Z,9.52
2023-05-12T12:06:15.570Z,7.50
2023-05-12T12:08:57.651Z,4.38
2023-05-12T12:11:30.531Z,4.07
2023-05-12T12:13:57.644Z,4.15
2023-05-12T12:16:29.426Z,2.45
2023-05-12T12:18:56.905Z,4.43
2023-05-12T12:21:25.236Z,4.22
2023-05-12T12:23:52.505Z,5.28
2023-05-12T12:26:21.630Z,6.63
2023-05-12T12:28:48.987Z,5.80
2023-05-12T12:31:16.619Z,4.25
2023-05-12T12:33:43.684Z,5.50
2023-05-12T12:36:10.662Z,5.28
2023-05-12T12:38:38.161Z,4.28
2023-05-12T12:41:06.450Z,2.30
2023-05-12T12:43:33.523Z,8.50
2023-05-12T12:46:00.277Z,3.45
2023-05-12T12:48:28.548Z,8.00
2023-05-12T12:50:56.021Z,1.80
2023-05-12T12:53:23.109Z,3.45
2023-05-12T12:55:50.093Z,3.05
2023-05-12T12:58:17.009Z,2.08
2023-05-12T13:00:43.895Z,8.93
2023-05-12T13:03:11.123Z,7.20
2023-05-12T13:05:38.659Z,4.22
2023-05-12T13:08:05.716Z,3.10
2023-05-12T13:10:32.974Z,2.72
2023-05-12T13:13:00.701Z,3.65
2023-05-12T13:15:27.652Z,3.28
2023-05-12T13:17:54.731Z,7.68
2023-05-12T13:20:21.710Z,3.20
2023-05-12T13:22:49.401Z,4.15
2023-05-12T13:25:16.106Z,2.63
2023-05-12T13:27:43.044Z,5.50
2023-05-12T13:30:12.852Z,3.75
2023-05-12T13:32:40.852Z,12.52
2023-05-12T13:35:08.922Z,2.78
2023-05-12T13:37:35.858Z,2.28
2023-05-12T13:40:03.017Z,2.38
2023-05-12T13:42:29.829Z,4.15
2023-05-12T13:44:56.671Z,7.78
2023-05-12T13:47:23.589Z,3.85
2023-05-12T13:49:50.608Z,3.03
2023-05-12T13:52:17.555Z,4.38
2023-05-12T13:54:44.389Z,4.07
2023-05-12T13:57:11.722Z,4.20
2023-05-12T13:59:38.624Z,4.80
2023-05-12T14:02:09.526Z,4.35
2023-05-12T14:04:36.875Z,4.53
2023-05-12T14:07:03.791Z,2.95
2023-05-12T14:09:30.668Z,3.63
2023-05-12T14:11:58.991Z,4.85
2023-05-12T14:14:26.017Z,2.78
2023-05-12T14:16:53.090Z,6.10
2023-05-12T14:19:19.865Z,2.85
2023-05-12T14:21:46.742Z,3.35
2023-05-12T14:24:13.559Z,5.32
2023-05-12T14:26:40.435Z,5.68
2023-05-12T14:29:08.857Z,1.98
2023-05-12T14:31:36.011Z,6.13
2023-05-12T14:34:04.214Z,3.03
2023-05-12T14:36:32.169Z,4.43
2023-05-12T14:38:59.037Z,2.83
2023-05-12T14:41:25.816Z,3.65
2023-05-12T14:43:52.637Z,2.42
2023-05-12T14:46:19.554Z,5.22
2023-05-12T14:48:47.406Z,2.25
2023-05-12T14:51:14.389Z,3.38
2023-05-12T14:53:41.482Z,2.50
2023-05-12T14:56:08.530Z,4.30
2023-05-12T14:58:35.991Z,5.15
2023-05-12T15:01:03.630Z,4.28
2023-05-12T15:03:30.959Z,2.92
2023-05-12T15:06:06.305Z,2.28
2023-05-12T15:08:33.591Z,4.60
2023-05-12T15:11:01.144Z,7.15
2023-05-12T15:13:29.076Z,4.03
2023-05-12T15:15:56.806Z,5.97
2023-05-12T15:18:25.373Z,2.05
2023-05-12T15:20:52.371Z,3.95
2023-05-12T15:23:19.324Z,2.53
2023-05-12T15:25:46.138Z,2.50
2023-05-12T15:28:12.963Z,3.25
2023-05-12T15:30:39.783Z,2.90
2023-05-12T15:33:07.046Z,6.47
2023-05-12T15:35:34.506Z,4.63
2023-05-12T15:38:01.694Z,3.95
2023-05-12T15:40:30.787Z,3.60
2023-05-12T15:42:58.006Z,5.22
2023-05-12T15:45:25.474Z,3.83
2023-05-12T15:47:52.432Z,2.85
2023-05-12T15:50:22.602Z,4.03
2023-05-12T15:52:50.240Z,3.17
2023-05-12T15:55:17.467Z,9.55
2023-05-12T15:57:44.920Z,4.63
2023-05-12T16:00:13.628Z,3.78
2023-05-12T16:02:40.929Z,2.35
2023-05-12T16:05:09.614Z,5.10
2023-05-12T16:07:37.623Z,4.03
2023-05-12T16:10:05.467Z,2.88
2023-05-12T16:12:32.250Z,4.60
2023-05-12T16:14:59.453Z,4.22
2023-05-12T16:17:27.730Z,3.47
2023-05-12T16:19:56.941Z,5.55
2023-05-12T16:22:24.162Z,2.53
2023-05-12T16:24:51.099Z,2.70
2023-05-12T16:27:18.098Z,3.40
2023-05-12T16:29:45.847Z,6.72
2023-05-12T16:32:13.015Z,3.60
2023-05-12T16:34:40.036Z,6.20
2023-05-12T16:37:06.863Z,5.80
2023-05-12T16:39:35.891Z,4.25
2023-05-12T16:42:03.026Z,3.90
2023-05-12T16:44:29.870Z,4.25
2023-05-12T16:46:57.033Z,4.43
2023-05-12T16:49:23.870Z,3.13
2023-05-12T16:51:50.722Z,9.48
2023-05-12T16:54:18.467Z,5.60
2023-05-12T16:56:45.721Z,3.40
2023-05-12T16:59:12.444Z,3.70
2023-05-12T17:01:39.644Z,4.05
2023-05-12T17:04:07.870Z,4.38
2023-05-12T17:06:34.746Z,4.18
2023-05-12T17:09:01.609Z,5.38
2023-05-12T17:11:28.549Z,4.63
2023-05-12T17:13:55.822Z,5.22
2023-05-12T17:16:22.938Z,2.65
2023-05-12T17:21:19.487Z,7.18
2023-05-12T17:23:46.450Z,3.33
2023-05-12T17:26:13.202Z,8.30
2023-05-12T17:28:39.893Z,5.88
2023-05-12T17:31:07.261Z,10.10
2023-05-12T17:33:34.378Z,6.43
2023-05-12T17:36:12.220Z,6.82
2023-05-12T17:38:40.802Z,4.35
2023-05-12T17:41:08.968Z,4.53
2023-05-12T17:43:36.122Z,5.38
2023-05-12T17:46:04.138Z,5.22
2023-05-12T17:48:33.138Z,4.80
2023-05-12T17:51:00.984Z,6.60
2023-05-12T17:53:27.890Z,7.47
2023-05-12T17:55:54.769Z,8.32
2023-05-12T17:58:21.585Z,6.30
2023-05-12T18:00:48.363Z,7.75
2023-05-12T18:03:15.736Z,7.85
2023-05-12T18:05:42.976Z,7.38
2023-05-12T18:08:09.887Z,9.30
2023-05-12T18:10:36.704Z,11.48
2023-05-12T18:13:03.400Z,10.77
2023-05-12T18:15:30.202Z,6.68
2023-05-12T18:17:58.046Z,9.80
2023-05-12T18:20:25.642Z,7.97
2023-05-12T18:22:52.619Z,6.07
2023-05-12T18:25:19.820Z,5.80
2023-05-12T18:27:46.925Z,7.20
2023-05-12T18:30:14.124Z,12.02
2023-05-12T18:32:41.586Z,9.30
2023-05-12T18:35:09.380Z,10.63
2023-05-12T18:37:36.111Z,10.98
2023-05-12T18:40:02.916Z,9.95
2023-05-12T18:42:30.119Z,8.85
2023-05-12T18:44:56.843Z,12.90
2023-05-12T18:47:23.719Z,9.75
2023-05-12T18:49:50.467Z,17.98
2023-05-12T18:52:17.729Z,14.40
2023-05-12T18:54:46.892Z,14.25
2023-05-12T18:57:16.075Z,12.57
2023-05-12T18:59:43.482Z,14.98
2023-05-12T19:02:10.993Z,18.15
2023-05-12T19:04:38.391Z,20.77
2023-05-12T19:07:09.675Z,16.88
2023-05-12T19:09:37.120Z,18.40
2023-05-12T19:12:06.092Z,20.13
2023-05-12T19:14:33.051Z,22.00
2023-05-12T19:16:59.796Z,19.25
2023-05-12T19:19:26.518Z,15.95
2023-05-12T19:21:53.248Z,17.15
2023-05-12T19:24:20.037Z,18.25
2023-05-12T19:26:46.954Z,19.23
2023-05-12T19:29:13.781Z,26.50
2023-05-12T19:31:40.605Z,26.92
2023-05-12T19:34:07.866Z,19.67
2023-05-12T19:36:35.946Z,25.40
2023-05-12T19:39:02.966Z,24.23
2023-05-12T19:41:30.048Z,21.20
2023-05-12T19:43:56.749Z,23.30
2023-05-12T19:46:23.806Z,26.33
2023-05-12T19:48:51.755Z,20.27
2023-05-12T19:51:18.790Z,21.63
2023-05-12T19:53:45.571Z,18.45
2023-05-12T19:56:12.432Z,22.88
2023-05-12T19:58:39.202Z,22.65
2023-05-12T20:01:06.145Z,18.27
2023-05-12T20:03:33.085Z,22.27
2023-05-12T20:06:00.066Z,24.50
2023-05-12T20:08:27.349Z,31.35
2023-05-12T20:10:54.045Z,21.27
2023-05-12T20:13:20.789Z,22.98
2023-05-12T20:15:47.514Z,40.80
2023-05-12T20:18:15.741Z,35.77
2023-05-12T20:20:43.299Z,31.42
2023-05-12T20:23:10.076Z,30.42
2023-05-12T20:25:36.937Z,32.97
2023-05-12T20:28:03.865Z,29.42
2023-05-12T20:30:30.789Z,25.98
2023-05-12T20:32:57.531Z,24.13
2023-05-12T20:35:24.441Z,28.20
2023-05-12T20:37:51.346Z,31.43
2023-05-12T20:40:19.623Z,20.83
2023-05-12T20:42:46.888Z,19.77
2023-05-12T20:45:14.762Z,20.67
2023-05-12T20:47:42.111Z,21.50
2023-05-12T20:50:09.484Z,23.57
2023-05-12T20:52:40.907Z,22.80
2023-05-12T20:55:09.113Z,22.02
2023-05-12T20:57:36.039Z,21.73
2023-05-12T21:00:04.007Z,21.60
2023-05-12T21:02:30.842Z,23.00
2023-05-12T21:04:57.676Z,20.53
2023-05-12T21:07:24.413Z,18.73
2023-05-12T21:09:51.239Z,19.03
2023-05-12T21:12:18.092Z,19.47
2023-05-12T21:14:45.394Z,19.00
2023-05-12T21:17:12.988Z,22.57
2023-05-12T21:19:40.674Z,25.42
2023-05-12T21:22:09.060Z,25.03
2023-05-12T21:24:37.392Z,25.10
2023-05-12T21:27:05.454Z,33.07
2023-05-12T21:29:33.826Z,26.03
2023-05-12T21:32:01.310Z,22.90
2023-05-12T21:34:28.415Z,19.97
2023-05-12T21:36:55.473Z,28.63
2023-05-12T21:39:22.245Z,20.45
2023-05-12T21:41:49.211Z,23.70
2023-05-12T21:44:16.303Z,30.50
2023-05-12T21:46:43.422Z,27.90
2023-05-12T21:49:10.748Z,25.37
2023-05-12T21:51:37.635Z,21.87
2023-05-12T21:54:04.597Z,20.47
2023-05-12T21:56:32.569Z,22.03
2023-05-12T21:58:59.355Z,22.20
2023-05-12T22:01:26.264Z,26.17
2023-05-12T22:03:53.166Z,21.50
2023-05-12T22:06:20.248Z,17.53
2023-05-12T22:08:47.266Z,19.27
2023-05-12T22:11:14.100Z,21.10
2023-05-12T22:13:41.304Z,14.90
2023-05-12T22:16:08.202Z,17.13
2023-05-12T22:18:35.486Z,17.43
2023-05-12T22:21:02.419Z,21.40
2023-05-12T22:23:29.219Z,16.70
2023-05-12T22:25:56.165Z,18.47
2023-05-12T22:28:22.923Z,16.17
2023-05-12T22:30:49.770Z,20.43
2023-05-12T22:33:16.605Z,18.30
2023-05-12T22:35:43.355Z,19.43
2023-05-12T22:38:10.301Z,16.30
2023-05-12T22:40:37.108Z,16.43
2023-05-12T22:43:03.958Z,18.47
2023-05-12T22:45:30.950Z,21.23
2023-05-12T22:47:58.038Z,22.30
2023-05-12T22:50:25.095Z,20.83
2023-05-12T22:52:57.008Z,23.37
2023-05-12T22:55:30.682Z,21.50
2023-05-12T22:57:58.375Z,21.67
2023-05-12T23:00:25.640Z,23.23
2023-05-12T23:02:53.183Z,25.93
2023-05-12T23:05:20.406Z,30.90
2023-05-12T23:07:47.281Z,30.10
2023-05-12T23:10:14.144Z,31.53
2023-05-12T23:12:40.896Z,21.50
2023-05-12T23:15:08.263Z,19.20
2023-05-12T23:17:35.624Z,26.03
2023-05-12T23:20:02.572Z,19.80
2023-05-12T23:22:29.660Z,22.80
2023-05-12T23:24:58.257Z,21.23
2023-05-12T23:27:26.304Z,21.10
2023-05-12T23:29:53.416Z,19.77
2023-05-12T23:32:20.453Z,21.00
2023-05-12T23:34:47.534Z,21.67
2023-05-12T23:37:14.326Z,20.03
2023-05-12T23:39:41.160Z,17.73
2023-05-12T23:42:08.150Z,19.37
2023-05-12T23:44:36.087Z,19.80
2023-05-12T23:47:03.005Z,19.53
2023-05-12T23:49:29.828Z,20.93
2023-05-12T23:51:56.595Z,16.73
2023-05-12T23:54:23.432Z,16.67
2023-05-12T23:56:50.509Z,17.10
2023-05-12T23:59:17.505Z,16.80
